Time;durP1;ratioP1;P1;durP2;ratioP2;P2;SDS_P1;SDS_P2;PMS_P1;PMS_P2;Temp;Humidity;BMP_temperature;BMP_pressure;BME280_temperature;BME280_humidity;BME280_pressure;Samples;Min_cycle;Max_cycle;Signal;HPM_P1;HPM_P2
2022/07/22 18:00:32;;;;;;;13.80;11.10;;;;;;;27.78;47.62;99743.66;5053749;27;21182;-80
2022/07/22 18:03:00;;;;;;;14.80;11.23;;;;;;;27.89;47.21;99744.69;5056831;28;20504;-79
2022/07/22 18:05:27;;;;;;;17.58;11.45;;;;;;;28.02;46.29;99747.03;5056774;28;20075;-78
2022/07/22 18:07:53;;;;;;;12.30;10.48;;;;;;;28.23;45.60;99759.03;5058963;28;20052;-79
2022/07/22 18:10:20;;;;;;;13.02;10.48;;;;;;;28.40;45.39;99756.25;5036528;28;20631;-80
2022/07/22 18:12:48;;;;;;;14.13;10.30;;;;;;;28.58;45.42;99759.78;5041256;28;20068;-79
2022/07/22 18:15:16;;;;;;;12.98;10.48;;;;;;;28.68;45.94;99757.16;5060921;28;20083;-80
2022/07/22 18:17:45;;;;;;;13.27;10.15;;;;;;;28.76;44.94;99762.16;5038756;28;20045;-78
2022/07/22 18:20:15;;;;;;;13.02;10.02;;;;;;;28.88;45.06;99764.75;5051853;28;20611;-78
2022/07/22 18:22:47;;;;;;;12.82;10.00;;;;;;;28.96;44.63;99753.31;5036525;28;20041;-78
2022/07/22 18:25:14;;;;;;;14.35;11.02;;;;;;;29.02;45.28;99763.22;5039551;28;20132;-80
2022/07/22 18:27:42;;;;;;;11.25;9.98;;;;;;;29.03;45.74;99748.47;5032631;28;20387;-80
2022/07/22 18:30:11;;;;;;;11.65;9.82;;;;;;;29.09;44.50;99752.09;5064956;28;20116;-80
2022/07/22 18:32:40;;;;;;;13.80;10.65;;;;;;;29.12;44.31;99757.06;5026773;28;20064;-81
2022/07/22 18:35:07;;;;;;;13.30;10.50;;;;;;;29.14;43.47;99769.38;5056597;28;20605;-80
2022/07/22 18:37:35;;;;;;;12.15;10.73;;;;;;;29.15;43.23;99757.34;5058779;28;20075;-79
2022/07/22 18:40:02;;;;;;;12.10;10.55;;;;;;;29.17;43.34;99762.56;5037237;28;20051;-79
2022/07/22 18:42:29;;;;;;;11.95;10.20;;;;;;;29.14;44.53;99763.91;5065025;28;20052;-79
2022/07/22 18:44:56;;;;;;;12.45;10.85;;;;;;;29.14;43.16;99763.09;5044808;28;20056;-80
2022/07/22 18:47:26;;;;;;;15.75;10.52;;;;;;;29.12;44.05;99760.59;5050472;28;20049;-80
2022/07/22 18:49:54;;;;;;;13.50;10.85;;;;;;;29.04;44.16;99761.06;5037583;28;20044;-80
2022/07/22 18:52:22;;;;;;;13.27;10.82;;;;;;;29.02;44.34;99760.47;5066149;28;20050;-79
2022/07/22 18:54:49;;;;;;;13.10;10.38;;;;;;;29.02;43.06;99755.00;5052896;28;20041;-80
2022/07/22 18:57:16;;;;;;;13.10;11.13;;;;;;;29.03;43.46;99755.84;5034261;28;20041;-79
2022/07/22 18:59:42;;;;;;;13.55;11.15;;;;;;;28.97;44.06;99754.97;5037597;28;20385;-79
2022/07/22 19:02:09;;;;;;;15.13;10.90;;;;;;;28.90;43.19;99755.19;5055714;28;20397;-79
2022/07/22 19:04:37;;;;;;;13.38;11.52;;;;;;;28.86;44.15;99745.03;5036321;28;20132;-79
2022/07/22 19:07:05;;;;;;;14.25;10.90;;;;;;;28.79;44.27;99743.31;5016962;28;20049;-78
2022/07/22 19:09:33;;;;;;;13.55;11.35;;;;;;;28.71;44.59;99742.97;5035904;28;20136;-79
2022/07/22 19:12:00;;;;;;;16.92;11.75;;;;;;;28.62;45.61;99745.31;5040923;28;20050;-79
2022/07/22 19:14:27;;;;;;;12.95;11.10;;;;;;;28.51;46.38;99751.75;5005133;28;20472;-79
2022/07/22 19:16:54;;;;;;;12.52;10.75;;;;;;;28.44;45.90;99749.22;5026814;28;20901;-79
2022/07/22 19:19:21;;;;;;;14.70;12.07;;;;;;;28.36;46.34;99749.63;5036670;28;20053;-79
2022/07/22 19:21:49;;;;;;;14.23;12.77;;;;;;;28.30;46.17;99751.50;5029979;28;20099;-79
2022/07/22 19:24:16;;;;;;;16.77;11.55;;;;;;;28.25;46.04;99761.53;5026689;28;20056;-80
2022/07/22 19:26:43;;;;;;;14.25;11.50;;;;;;;28.16;45.74;99765.78;5024880;28;20055;-79
2022/07/22 19:29:09;;;;;;;12.48;10.68;;;;;;;28.02;46.78;99762.59;5023377;28;20049;-79
2022/07/22 19:31:37;;;;;;;15.30;11.32;;;;;;;27.91;47.47;99772.53;5025663;28;20497;-79
2022/07/22 19:34:04;;;;;;;16.08;11.65;;;;;;;27.86;47.61;99776.03;5024523;28;20041;-79
2022/07/22 19:36:31;;;;;;;18.45;11.15;;;;;;;27.77;47.94;99777.50;5025088;28;20156;-79
2022/07/22 19:39:02;;;;;;;12.45;10.68;;;;;;;27.63;48.60;99787.94;5026875;28;20061;-78
2022/07/22 19:41:29;;;;;;;14.93;10.82;;;;;;;27.61;48.65;99784.63;5038995;28;20029;-79
2022/07/22 19:43:56;;;;;;;12.65;10.50;;;;;;;27.57;48.39;99791.66;5039432;28;20042;-79
2022/07/22 19:46:23;;;;;;;13.43;10.93;;;;;;;27.48;48.36;99791.25;5026453;28;20056;-80
2022/07/22 19:48:50;;;;;;;15.57;11.00;;;;;;;27.43;48.95;99799.34;5025082;28;20059;-78
2022/07/22 19:51:17;;;;;;;14.82;11.55;;;;;;;27.40;48.98;99804.44;5024339;28;20084;-78
2022/07/22 19:53:44;;;;;;;13.55;10.73;;;;;;;27.37;49.03;99813.94;5044907;28;20048;-78
2022/07/22 19:56:10;;;;;;;16.25;11.38;;;;;;;27.33;49.28;99812.81;5046253;28;20177;-78
2022/07/22 19:58:37;;;;;;;15.23;11.65;;;;;;;27.30;49.57;99815.19;5047587;28;20499;-77
2022/07/22 20:01:04;;;;;;;13.70;10.77;;;;;;;27.24;49.60;99817.81;5037579;28;20048;-77
2022/07/22 20:03:30;;;;;;;13.82;10.38;;;;;;;27.21;49.34;99823.78;5036286;28;20042;-77
2022/07/22 20:05:59;;;;;;;18.13;10.80;;;;;;;27.19;50.38;99831.38;5042087;28;20507;-77
2022/07/22 20:08:28;;;;;;;13.50;10.80;;;;;;;27.12;50.55;99836.13;5028063;28;20045;-77
2022/07/22 20:10:55;;;;;;;12.63;11.27;;;;;;;27.12;50.61;99840.72;5041405;28;20381;-77
2022/07/22 20:13:22;;;;;;;13.40;11.30;;;;;;;27.11;50.58;99845.38;5044096;28;20068;-77
2022/07/22 20:15:48;;;;;;;13.70;10.88;;;;;;;27.08;50.01;99848.59;4995164;28;20053;-78
2022/07/22 20:18:16;;;;;;;14.15;11.68;;;;;;;27.01;50.82;99861.53;5019662;28;20124;-77
2022/07/22 20:20:45;;;;;;;17.10;12.60;;;;;;;26.97;51.23;99863.06;5020746;28;20060;-78
2022/07/22 20:23:14;;;;;;;16.35;12.45;;;;;;;26.92;51.33;99860.25;4990167;28;20144;-77
2022/07/22 20:25:40;;;;;;;15.77;11.75;;;;;;;26.91;51.03;99859.41;5021901;28;20041;-77
2022/07/22 20:28:07;;;;;;;14.93;11.52;;;;;;;26.86;51.50;99859.31;5027440;28;20132;-78
2022/07/22 20:30:34;;;;;;;15.45;10.98;;;;;;;26.85;51.84;99849.50;5044867;28;20075;-76
2022/07/22 20:33:01;;;;;;;23.23;11.95;;;;;;;26.80;51.67;99839.31;5042191;28;20512;-76
2022/07/22 20:35:28;;;;;;;16.67;11.45;;;;;;;26.75;52.73;99831.06;5039266;28;20075;-77
2022/07/22 20:37:55;;;;;;;13.98;11.05;;;;;;;26.69;53.53;99848.38;5041633;28;20055;-76
2022/07/22 20:40:21;;;;;;;17.60;13.10;;;;;;;26.67;53.71;99838.78;5044318;28;20057;-76
2022/07/22 20:42:49;;;;;;;13.25;11.15;;;;;;;26.64;53.96;99829.22;5042915;28;20512;-76
2022/07/22 20:45:16;;;;;;;18.15;11.73;;;;;;;26.61;54.05;99835.13;5027055;28;20037;-76
2022/07/22 20:47:43;;;;;;;17.95;12.35;;;;;;;26.49;54.50;99832.41;5043019;28;20053;-76
2022/07/22 20:54:01;;;;;;;16.52;11.40;;;;;;;26.28;55.50;99830.31;5001473;28;20087;-76
2022/07/22 20:56:29;;;;;;;15.25;11.77;;;;;;;26.37;54.82;99829.69;5052507;28;20579;-76
2022/07/22 20:58:56;;;;;;;14.88;11.35;;;;;;;26.35;55.36;99822.84;5034121;28;20053;-76
2022/07/22 21:01:23;;;;;;;16.17;12.48;;;;;;;26.39;54.97;99821.31;5024911;28;20045;-76
2022/07/22 21:03:50;;;;;;;14.07;11.70;;;;;;;26.46;54.34;99813.84;5024719;28;20048;-76
2022/07/22 21:06:18;;;;;;;15.63;12.73;;;;;;;26.55;53.69;99815.13;5022235;28;20060;-76
2022/07/22 21:08:45;;;;;;;15.88;12.68;;;;;;;26.54;53.24;99813.47;5006192;28;20049;-77
2022/07/22 21:11:12;;;;;;;17.10;11.77;;;;;;;26.60;53.28;99814.41;5005216;28;20050;-76
2022/07/22 21:13:38;;;;;;;16.10;12.60;;;;;;;26.66;52.67;99816.16;5027669;28;20098;-76
2022/07/22 21:16:05;;;;;;;17.55;12.93;;;;;;;26.71;52.41;99818.97;5027679;28;20132;-76
2022/07/22 21:18:32;;;;;;;16.80;11.77;;;;;;;26.71;52.42;99818.16;5021534;28;20048;-76
2022/07/22 21:21:00;;;;;;;13.02;11.02;;;;;;;26.73;52.03;99821.47;5021024;28;20049;-76
2022/07/22 21:23:27;;;;;;;13.65;12.27;;;;;;;26.65;52.56;99810.97;5007802;28;20497;-76
2022/07/22 21:25:53;;;;;;;18.45;12.68;;;;;;;26.55;52.39;99809.69;5037021;28;20049;-76
2022/07/22 21:28:20;;;;;;;17.38;13.13;;;;;;;26.49;52.34;99804.34;5021378;28;20045;-76
2022/07/22 21:30:47;;;;;;;14.55;11.63;;;;;;;26.49;52.75;99798.91;5023026;28;20108;-77
2022/07/22 21:33:14;;;;;;;15.18;12.43;;;;;;;26.46;53.09;99812.97;5033096;28;20064;-76
2022/07/22 21:35:41;;;;;;;16.15;12.57;;;;;;;26.44;52.92;99818.69;5012659;28;20048;-76
2022/07/22 21:38:07;;;;;;;15.25;12.38;;;;;;;26.42;52.46;99807.22;5039206;28;20045;-76
2022/07/22 21:40:35;;;;;;;16.75;13.05;;;;;;;26.37;52.56;99805.19;5023179;28;20491;-76
2022/07/22 21:43:02;;;;;;;13.45;12.05;;;;;;;26.37;53.10;99807.09;5023045;28;20034;-76
2022/07/22 21:45:30;;;;;;;14.73;11.75;;;;;;;26.36;53.35;99797.28;5030293;28;20063;-77
2022/07/22 21:47:57;;;;;;;17.73;12.60;;;;;;;26.35;53.31;99795.63;5023541;28;20448;-76
2022/07/22 21:50:23;;;;;;;13.32;11.93;;;;;;;26.34;53.53;99802.97;5022091;28;20052;-76
2022/07/22 21:52:50;;;;;;;16.55;13.05;;;;;;;26.36;53.38;99805.47;5018186;28;20057;-76
2022/07/22 21:55:17;;;;;;;16.52;12.10;;;;;;;26.37;53.36;99801.66;5024578;28;20045;-76
2022/07/22 21:57:43;;;;;;;14.63;10.82;;;;;;;26.31;53.80;99802.63;5025113;28;20048;-76
2022/07/22 22:00:11;;;;;;;15.70;12.02;;;;;;;26.35;53.68;99806.50;5036414;28;20060;-76
2022/07/22 22:02:39;;;;;;;18.92;12.40;;;;;;;26.32;53.67;99815.97;5037733;28;20049;-76
2022/07/22 22:05:06;;;;;;;15.98;11.52;;;;;;;26.35;53.37;99811.94;5023785;28;20140;-76
2022/07/22 22:07:33;;;;;;;14.55;12.10;;;;;;;26.35;53.39;99803.78;5021156;28;20041;-76
2022/07/22 22:10:00;;;;;;;14.25;12.75;;;;;;;26.36;52.84;99809.00;5005790;28;20045;-76
2022/07/22 22:12:26;;;;;;;15.45;12.60;;;;;;;26.35;53.34;99814.66;5006523;28;20041;-76
2022/07/22 22:14:53;;;;;;;17.40;12.60;;;;;;;26.33;53.12;99817.66;5006363;28;20149;-77
2022/07/22 22:17:20;;;;;;;15.98;11.55;;;;;;;26.29;53.43;99808.31;5039686;28;20042;-76
2022/07/22 22:19:47;;;;;;;15.20;13.13;;;;;;;26.24;53.73;99796.47;5021817;28;20053;-76
2022/07/22 22:22:13;;;;;;;14.07;12.43;;;;;;;26.13;54.58;99801.69;5006030;28;20469;-77
2022/07/22 22:24:40;;;;;;;13.63;12.18;;;;;;;26.04;56.21;99797.69;5006201;28;20037;-76
2022/07/22 22:27:07;;;;;;;17.42;12.93;;;;;;;26.03;56.57;99801.47;5023197;28;20045;-76
2022/07/22 22:29:33;;;;;;;17.52;12.73;;;;;;;26.01;56.61;99800.88;5022613;28;20408;-76
2022/07/22 22:32:06;;;;;;;15.35;13.65;;;;;;;25.96;56.79;99804.31;5040824;28;20435;-76
2022/07/22 22:34:33;;;;;;;18.25;13.40;;;;;;;26.06;55.46;99806.44;5042391;28;20136;-76
2022/07/22 22:37:01;;;;;;;15.05;12.82;;;;;;;26.05;54.97;99802.03;5026889;28;20131;-76
2022/07/22 22:39:31;;;;;;;17.23;13.70;;;;;;;26.05;54.76;99796.59;5041130;28;20060;-76
2022/07/22 22:41:58;;;;;;;16.55;13.90;;;;;;;26.06;54.62;99792.84;5015986;28;20367;-76
2022/07/22 22:44:25;;;;;;;15.80;12.57;;;;;;;26.05;55.27;99795.78;5025605;28;20045;-76
2022/07/22 22:46:53;;;;;;;15.50;11.98;;;;;;;25.98;55.38;99799.47;5026192;28;20443;-76
2022/07/22 22:49:20;;;;;;;14.40;12.85;;;;;;;25.96;55.16;99803.50;5028007;28;20448;-78
2022/07/22 22:51:47;;;;;;;14.52;12.63;;;;;;;25.93;55.49;99793.91;5049113;28;20076;-78
2022/07/22 22:54:13;;;;;;;15.73;12.35;;;;;;;25.93;55.67;99804.78;5032389;28;20099;-78
2022/07/22 22:56:40;;;;;;;18.23;13.73;;;;;;;25.88;55.07;99804.69;5045554;28;20459;-78
2022/07/22 22:59:09;;;;;;;15.90;12.88;;;;;;;25.79;55.73;99814.22;5049538;28;20542;-78
2022/07/22 23:01:35;;;;;;;16.90;12.95;;;;;;;25.68;57.92;99810.44;5023665;28;20037;-78
2022/07/22 23:04:02;;;;;;;24.15;13.68;;;;;;;25.64;58.53;99808.41;5026798;28;20064;-78
2022/07/22 23:06:29;;;;;;;16.30;13.10;;;;;;;25.57;58.78;99816.69;5026912;28;20045;-80
2022/07/22 23:08:56;;;;;;;17.13;13.45;;;;;;;25.50;58.45;99814.06;5042045;28;20048;-80
2022/07/22 23:11:23;;;;;;;15.93;12.35;;;;;;;25.47;59.10;99813.72;5041075;28;20059;-78
2022/07/22 23:13:50;;;;;;;18.95;13.10;;;;;;;25.48;58.63;99816.19;5013307;28;20045;-78
2022/07/22 23:16:16;;;;;;;19.50;13.70;;;;;;;25.45;58.16;99815.84;5045764;28;20037;-78
2022/07/22 23:18:45;;;;;;;16.77;13.32;;;;;;;25.46;58.00;99809.34;5042107;28;20490;-78
2022/07/22 23:21:12;;;;;;;14.15;12.57;;;;;;;25.47;57.72;99814.56;5043982;28;20061;-76
2022/07/22 23:23:39;;;;;;;15.77;13.82;;;;;;;25.42;57.26;99791.84;5043665;28;20045;-76
2022/07/22 23:26:06;;;;;;;18.08;13.93;;;;;;;25.44;56.56;99792.44;5045749;28;20045;-76
2022/07/22 23:28:33;;;;;;;16.88;13.00;;;;;;;25.47;56.62;99791.97;5045425;28;20048;-77
2022/07/22 23:30:59;;;;;;;16.00;13.35;;;;;;;25.51;56.25;99785.00;5044917;28;20049;-78
2022/07/22 23:33:26;;;;;;;17.45;13.45;;;;;;;25.53;56.30;99785.59;5027427;28;20095;-77
2022/07/22 23:35:53;;;;;;;14.65;13.10;;;;;;;25.51;56.47;99779.56;5042738;28;20056;-79
2022/07/22 23:38:20;;;;;;;17.23;12.85;;;;;;;25.47;56.49;99781.09;5041291;28;20429;-80
2022/07/22 23:40:47;;;;;;;14.98;12.32;;;;;;;25.46;56.40;99784.88;5046900;28;20037;-79
2022/07/22 23:43:14;;;;;;;16.52;12.98;;;;;;;25.46;56.60;99779.44;5046789;28;20052;-78
2022/07/22 23:45:41;;;;;;;16.42;13.73;;;;;;;25.45;56.67;99789.47;5028345;28;20044;-80
2022/07/22 23:48:08;;;;;;;16.42;12.73;;;;;;;25.39;56.81;99786.88;5039965;28;20522;-79
2022/07/22 23:50:40;;;;;;;13.75;12.30;;;;;;;25.37;56.86;99797.16;5019919;28;20044;-79
2022/07/22 23:53:06;;;;;;;17.50;12.90;;;;;;;25.28;56.94;99793.94;5012949;28;20053;-78
2022/07/22 23:55:33;;;;;;;16.15;12.90;;;;;;;25.21;57.08;99799.47;5019978;28;20055;-80
2022/07/22 23:58:00;;;;;;;16.30;13.18;;;;;;;25.21;57.04;99790.50;5044685;28;20044;-79
